CheckWX is a tool to help pilots better visualize weather data.  It is not intended as a substitute for an official pre-flight weather briefing.

02:49:23 UTC

KIFA METAR
Iowa Falls Municipal Airport
Iowa Falls, Iowa, USA
Current

34 mins ago

KIFA 230215Z AUTO 28003KT 10SM 13/11 A2998 RMK AO2 T01280106
Observed
Sep-23 @ 02:15 UTC
Wind
  • 280° at 3 KTS
Visibility
10 SM
Temperature
13°C / 55°F
Dewpoint
11°C / 52°F
Humidity
88%
Altimeter
29.98" Hg
Pressure
1015.22 hPa
Previous

54 mins ago

KIFA 230155Z AUTO 29004KT 10SM 13/11 A2997 RMK AO2 T01280106
Observed
Sep-23 @ 01:55 UTC
Wind
  • 290° at 4 KTS
Visibility
10 SM
Temperature
13°C / 55°F
Dewpoint
11°C / 52°F
Humidity
88%
Altimeter
29.97" Hg
Pressure
1014.92 hPa
Previous

1 hour ago

KIFA 230135Z AUTO 29003KT 10SM 13/11 A2996 RMK AO2 T01310108
Observed
Sep-23 @ 01:35 UTC
Wind
  • 290° at 3 KTS
Visibility
10 SM
Temperature
13°C / 55°F
Dewpoint
11°C / 52°F
Humidity
88%
Altimeter
29.96" Hg
Pressure
1014.52 hPa